Fort Worth, TX (76101)

7:38 AM CDT on August 04, 2015 (GMT -0500)
HADS | | Change Station
CLOSE
Current Station
Personal Weather Station
Location: Fort Worth, TX
Elevation: 520 ft
Nearby Weather Stations

Elev 520 ft 32.76 °N, 97.33 °W | Updated 23 minutes ago

Clear
Clear
82 °F
Feels Like 83 °F
N
6
Wind Variable Wind from SSW
Gusts 0.0 mph

Today
High -- | Low -- °F
--% Chance of Precip.
Yesterday
High -- | Low -- °F
Precip. -- in
6:45 AM 8:25 PM
Waning Gibbous, 78% visible
Pressure 29.90 in
Visibility 10.0 miles
Clouds Few 12000 ft
Heat Index 83 °F
Dew Point 63 °F
Humidity 53%
Rainfall in
Snow Depth Not available.
UV 0 out of 12
Pollen 4.90 out of 12
Air Quality Not available.
Flu Activity Not available.
METAR KFTW 041153Z 19006KT 10SM FEW120 27/18 A2993 RMK AO2 SLP124 T02720178 10300 20261 53012

More Conditions Fewer Conditions

Pressure 29.90 in
Visibility 10.0 miles
Clouds Few 12000 ft
Heat Index 83 °F
Dew Point 63 °F
Humidity 53%
Rainfall in
Snow Depth Not available.
UV 0 out of 12
Pollen 4.90 out of 12
Air Quality Not available.
Flu Activity Not available.
METAR KFTW 041153Z 19006KT 10SM FEW120 27/18 A2993 RMK AO2 SLP124 T02720178 10300 20261 53012

More Conditions Fewer Conditions

Nowcast | as of 7:34 am CDT on August 4, 2015

Scattered showers of mostly light rain will affect portions of Montague...Cooke Grayson...wise...Denton and Collins counties this morning through 11 am. The rain was moving east at 5 to 10 mph and will produce rain amounts up to one tenth of an inch.

×

10-Day Weather Forecast

×

Almanac

Astronomy

Aug. 04, 2015 Rise Set
Actual Time
Civil Twilight
Nautical Twilight
Astronomical Twilight
Moon
Length of Visible Light
Length of Day
Tomorrow will be .
, % of the Moon is Illuminated

Today's Extremes

State Highs State Lows

Community

WunderPhotos

Upload Photos

1,843,911 photos uploaded!

WunderBlogs® & News

Nearby

Air Quality

  Air Quality AQ Index Pollutant
Not available.

Snow Depth

Station Depth Elevation

Earthquake Activity

City Distance Mag. Time & Date
Minimum magnitude displayed is 2.5.

Coastal Water Temperatures

Place Temperature

Stations

Nearby Weather Stations

Station Location Temp. Windchill Dew Point Humidity Wind Precip. Elev Updated Type